Pecanha, Brazil
Current Conditions -  °F | °C
As of 3:00 PM on Sunday 23 Nov 2014 (Local Time) from SBLS Reporting Station
Rain Showers Rain Showers  
Wind Chill: 77°   Ceiling: 2500
Heat Index: 79°   Visibility: 5mi
Dew Point: 68°   Wind: 6mph
Humidity: 74%   Direction: 70°ENE
Pressure: 29.97"   Gusts: NA
Location:  18.55°S, 42.56°W
Report Text: SBLS 231700Z 07005KT 020V130 8000 VCSH BKN025 SCT100 25/20 Q1015
Loading
Personal Weather Stations






























Interactive Weather Map New forecast layout! Learn more

10-Day Weather Forecast

Advertisements
Track Severe Weather on mobile